Time;durP1;ratioP1;P1;durP2;ratioP2;P2;SDS_P1;SDS_P2;PMS_P1;PMS_P2;Temp;Humidity;BMP_temperature;BMP_pressure;BME280_temperature;BME280_humidity;BME280_pressure;Samples;Min_cycle;Max_cycle;Signal;HPM_P1;HPM_P2
2021/05/30 00:00:18;;;;;;;29.70;20.90;;;8.40;99.90;;;9.48;93.99;101721.41;4957874;29;20027;-82
2021/05/30 00:02:44;;;;;;;32.00;22.10;;;8.30;99.90;;;9.48;93.69;101725.03;4959410;28;20027;-81
2021/05/30 00:05:12;;;;;;;35.78;22.40;;;8.30;99.90;;;9.43;93.72;101725.19;4959072;29;20106;-82
2021/05/30 00:07:39;;;;;;;31.52;21.60;;;8.30;99.90;;;9.39;94.20;101728.94;4959367;28;20502;-81
2021/05/30 00:10:07;;;;;;;30.58;20.42;;;8.30;99.90;;;9.34;94.13;101732.69;4960014;29;20042;-84
2021/05/30 00:12:36;;;;;;;32.38;22.92;;;8.20;99.90;;;9.33;94.33;101735.81;4959371;29;20062;-84
2021/05/30 00:15:06;;;;;;;28.73;20.25;;;8.20;99.90;;;9.26;94.28;101730.72;4961226;28;20039;-86
2021/05/30 00:17:33;;;;;;;28.33;20.75;;;8.10;99.90;;;9.20;94.44;101732.00;4959461;28;20106;-84
2021/05/30 00:19:59;;;;;;;32.88;22.20;;;8.00;99.90;;;9.16;94.52;101735.75;4960558;29;20031;-84
2021/05/30 00:22:25;;;;;;;33.88;23.13;;;8.00;99.90;;;9.19;94.76;101740.66;4960294;29;20035;-80
2021/05/30 00:24:51;;;;;;;28.45;19.83;;;8.00;99.90;;;9.17;94.85;101735.44;4960618;28;20031;-82
2021/05/30 00:27:17;;;;;;;31.45;20.83;;;8.00;99.90;;;9.17;95.06;101735.44;4967665;23;20039;-86
2021/05/30 00:29:43;;;;;;;30.92;21.00;;;8.00;99.90;;;9.20;95.31;101728.38;4950023;29;20108;-84
2021/05/30 00:32:09;;;;;;;28.13;19.00;;;8.00;99.90;;;9.21;95.12;101733.66;4952841;29;20104;-84
2021/05/30 00:34:37;;;;;;;30.08;19.50;;;8.00;99.90;;;9.22;95.54;101734.44;4948889;29;20038;-84
2021/05/30 00:37:03;;;;;;;30.25;19.45;;;8.00;99.90;;;9.23;95.13;101730.53;4961525;28;20027;-85
2021/05/30 00:39:29;;;;;;;30.27;20.98;;;8.00;99.90;;;9.21;95.14;101730.88;4984262;28;20035;-85
2021/05/30 00:41:55;;;;;;;28.90;19.60;;;8.10;99.90;;;9.23;95.37;101730.53;4985125;28;20058;-85
2021/05/30 00:44:29;;;;;;;28.65;19.48;;;8.00;99.90;;;9.23;95.48;101739.72;4985202;28;20031;-85
2021/05/30 00:46:59;;;;;;;31.65;21.77;;;8.00;99.90;;;9.19;95.42;101724.78;4986975;28;20026;-85
2021/05/30 00:49:27;;;;;;;28.27;19.55;;;8.00;99.90;;;9.22;95.18;101734.44;4981100;28;20026;-86
2021/05/30 00:51:54;;;;;;;31.92;19.90;;;8.00;99.90;;;9.20;95.07;101739.53;4979043;28;20113;-88
2021/05/30 00:54:21;;;;;;;29.77;19.48;;;7.90;99.90;;;9.11;95.52;101735.91;4980084;28;20034;-86
2021/05/30 00:56:48;;;;;;;29.92;19.02;;;7.90;99.90;;;9.05;95.28;101728.84;4980486;28;20109;-87
2021/05/30 00:59:14;;;;;;;28.48;18.70;;;7.80;99.90;;;9.01;95.66;101731.44;4978531;28;20114;-87
2021/05/30 01:01:42;;;;;;;29.50;19.23;;;7.80;99.90;;;8.99;95.63;101736.50;4977562;28;20027;-88
2021/05/30 01:04:11;;;;;;;26.65;18.70;;;7.80;99.90;;;8.95;95.91;101727.97;4959605;28;20039;-86
2021/05/30 01:06:38;;;;;;;27.60;18.52;;;7.80;99.90;;;8.95;95.58;101741.91;4958282;28;20351;-87
2021/05/30 01:09:06;;;;;;;30.40;19.60;;;7.70;99.90;;;8.91;95.65;101728.94;4960380;28;20039;-87
2021/05/30 01:11:35;;;;;;;28.73;20.08;;;7.70;99.90;;;8.90;95.57;101730.06;4978299;28;20034;-86
2021/05/30 01:14:04;;;;;;;29.70;18.98;;;7.70;99.90;;;8.89;95.63;101728.44;4978493;28;20035;-83
2021/05/30 01:16:31;;;;;;;24.67;17.35;;;7.70;99.90;;;8.83;95.37;101721.38;4978974;28;20038;-85
2021/05/30 01:18:59;;;;;;;26.77;18.88;;;7.60;99.90;;;8.71;95.58;101716.38;4978829;28;20023;-86
2021/05/30 01:21:30;;;;;;;28.23;18.88;;;7.60;99.90;;;8.69;95.89;101727.03;4979954;28;20023;-85
2021/05/30 01:23:57;;;;;;;30.60;21.42;;;7.50;99.90;;;8.69;96.14;101728.97;4978644;28;20031;-86
2021/05/30 01:26:25;;;;;;;28.92;18.58;;;7.50;99.90;;;8.63;95.98;101725.53;4979136;28;20023;-86
2021/05/30 01:28:53;;;;;;;26.55;18.13;;;7.50;99.90;;;8.56;95.92;101729.88;4977934;28;20133;-85
2021/05/30 01:31:20;;;;;;;28.10;19.58;;;7.40;99.90;;;8.51;95.95;101730.03;4986483;28;20061;-84
2021/05/30 01:33:47;;;;;;;31.77;19.80;;;7.40;99.90;;;8.52;96.20;101726.09;4992004;28;20038;-84
2021/05/30 01:36:14;;;;;;;30.60;19.45;;;7.30;99.90;;;8.52;96.30;101724.13;4989676;28;20030;-84
2021/05/30 01:38:40;;;;;;;30.75;20.25;;;7.30;99.90;;;8.51;96.18;101727.25;4971305;28;20035;-84
2021/05/30 01:41:07;;;;;;;32.75;20.15;;;7.30;99.90;;;8.42;96.21;101719.66;4973968;28;20025;-85
2021/05/30 01:43:33;;;;;;;29.85;20.02;;;7.30;99.90;;;8.45;96.33;101730.16;4975167;28;20027;-84
2021/05/30 01:46:01;;;;;;;31.55;19.45;;;7.20;99.90;;;8.41;95.94;101728.34;4973811;29;20027;-83
2021/05/30 01:48:27;;;;;;;28.10;19.33;;;7.20;99.90;;;8.33;95.91;101731.88;4974029;28;20027;-83
2021/05/30 01:50:54;;;;;;;29.92;18.73;;;7.20;99.90;;;8.26;96.52;101726.72;4974901;29;20042;-84
2021/05/30 01:53:42;;;;;;;28.40;18.98;;;7.10;99.90;;;8.25;96.29;101733.41;4972638;29;20031;-88
2021/05/30 01:58:37;;;;;;;26.88;18.63;;;7.10;99.90;;;8.18;96.51;101735.00;4974480;28;20035;-87
2021/05/30 02:01:02;;;;;;;31.75;17.52;;;7.00;99.90;;;8.11;96.39;101734.63;4963111;29;20058;-86
2021/05/30 02:03:35;;;;;;;32.05;18.20;;;7.00;99.90;;;8.04;96.26;101735.06;4959389;29;20035;-88
2021/05/30 02:06:02;;;;;;;29.95;20.20;;;6.90;99.90;;;8.07;96.23;101750.28;4958754;29;20624;-85
2021/05/30 02:08:30;;;;;;;32.60;20.42;;;6.90;99.90;;;8.07;96.33;101733.59;4959205;28;20103;-87
2021/05/30 02:10:57;;;;;;;27.77;18.52;;;6.90;99.90;;;8.04;96.58;101743.41;4977265;28;20110;-86
2021/05/30 02:13:27;;;;;;;25.77;16.98;;;6.90;99.90;;;7.99;96.46;101740.75;4977742;28;20027;-87
2021/05/30 02:15:53;;;;;;;26.35;17.15;;;6.90;99.90;;;7.90;96.34;101739.84;4977536;28;20063;-87
2021/05/30 02:18:19;;;;;;;31.45;19.08;;;6.80;99.90;;;7.83;96.69;101726.34;4993132;28;20169;-85
2021/05/30 02:20:46;;;;;;;28.17;18.58;;;6.70;99.90;;;7.80;96.82;101729.75;4977949;28;20054;-83
2021/05/30 02:23:14;;;;;;;30.52;19.25;;;6.70;99.90;;;7.78;96.73;101726.50;4979047;28;20565;-85
2021/05/30 02:25:41;;;;;;;31.33;19.63;;;6.70;99.90;;;7.81;96.57;101730.59;4977366;28;20483;-87
2021/05/30 02:28:08;;;;;;;33.38;20.20;;;6.60;99.90;;;7.80;96.82;101726.97;4977292;28;20045;-86
2021/05/30 02:30:34;;;;;;;32.70;20.45;;;6.70;99.90;;;7.82;96.61;101726.69;4977597;28;20050;-85
2021/05/30 02:33:03;;;;;;;36.00;20.77;;;6.70;99.90;;;7.83;97.07;101731.13;4977214;28;20074;-85
2021/05/30 02:35:29;;;;;;;30.15;19.30;;;6.70;99.90;;;7.86;96.97;101736.88;4976642;28;20123;-87
2021/05/30 02:37:56;;;;;;;27.73;18.02;;;6.70;99.90;;;7.82;96.93;101735.84;4959135;28;20086;-86
2021/05/30 02:40:23;;;;;;;28.95;17.70;;;6.70;99.90;;;7.75;96.57;101729.91;4956820;28;20027;-87
2021/05/30 02:42:49;;;;;;;29.10;18.73;;;6.60;99.90;;;7.66;96.59;101723.44;4957705;28;20031;-86
2021/05/30 02:45:15;;;;;;;30.75;20.20;;;6.60;99.90;;;7.65;96.99;101727.34;4958140;28;20030;-87
2021/05/30 02:47:42;;;;;;;31.85;19.20;;;6.50;99.90;;;7.63;96.86;101729.63;4958287;28;20149;-85
2021/05/30 02:50:09;;;;;;;27.10;18.35;;;6.50;99.90;;;7.62;97.30;101733.53;4963996;28;20019;-84
2021/05/30 02:52:35;;;;;;;31.60;19.75;;;6.50;99.90;;;7.61;97.31;101729.09;4975765;29;20039;-85
2021/05/30 02:55:01;;;;;;;37.30;21.73;;;6.50;99.90;;;7.60;97.50;101726.66;4960168;29;20095;-85
2021/05/30 02:57:26;;;;;;;35.47;20.80;;;6.50;99.90;;;7.56;97.53;101725.63;4956577;28;20575;-85
2021/05/30 02:59:53;;;;;;;34.58;20.27;;;6.40;99.90;;;7.57;97.50;101727.28;4957951;29;20031;-85
2021/05/30 03:02:19;;;;;;;38.05;21.33;;;6.50;99.90;;;7.58;97.61;101734.47;4959143;29;20032;-86
2021/05/30 03:04:46;;;;;;;36.42;22.85;;;6.50;99.90;;;7.60;97.52;101734.97;4966183;29;20058;-84
2021/05/30 03:07:11;;;;;;;33.53;21.95;;;6.40;99.90;;;7.59;97.42;101736.09;4972659;28;20089;-85
2021/05/30 03:09:38;;;;;;;33.20;21.20;;;6.50;99.90;;;7.59;97.41;101736.94;4967636;28;20101;-87
2021/05/30 03:12:06;;;;;;;36.95;21.25;;;6.50;99.90;;;7.61;97.83;101731.88;4976367;28;20031;-86
2021/05/30 03:14:34;;;;;;;35.55;21.77;;;6.50;99.90;;;7.56;97.54;101732.00;4992433;28;20085;-86
2021/05/30 03:17:00;;;;;;;34.22;21.83;;;6.40;99.90;;;7.58;97.89;101734.47;4982571;28;20043;-87
2021/05/30 03:19:26;;;;;;;33.30;20.95;;;6.40;99.90;;;7.55;97.66;101735.91;4975410;28;20107;-85
2021/05/30 03:21:53;;;;;;;31.38;18.75;;;6.40;99.90;;;7.52;97.42;101733.75;4974813;28;20038;-86
2021/05/30 03:24:19;;;;;;;32.83;19.85;;;6.40;99.90;;;7.47;97.20;101736.66;4975764;28;20027;-87
2021/05/30 03:26:45;;;;;;;32.70;21.25;;;6.30;99.90;;;7.47;97.26;101745.00;4974857;28;20054;-86
2021/05/30 03:29:11;;;;;;;33.33;19.30;;;6.30;99.90;;;7.49;97.44;101742.72;4975867;28;20105;-86
2021/05/30 03:31:37;;;;;;;25.67;18.02;;;6.30;99.90;;;7.43;97.08;101744.78;4976265;28;20062;-86
2021/05/30 03:34:03;;;;;;;30.63;19.80;;;6.30;99.90;;;7.40;97.26;101744.59;4976518;28;20351;-86
2021/05/30 03:36:31;;;;;;;32.08;20.35;;;6.30;99.90;;;7.38;97.40;101744.09;4968452;28;20034;-87
2021/05/30 03:39:05;;;;;;;33.45;20.25;;;6.20;99.90;;;7.33;97.61;101745.00;4958971;28;20527;-85
2021/05/30 03:41:37;;;;;;;32.60;20.25;;;6.20;99.90;;;7.39;97.36;101745.72;4965562;28;20039;-84
2021/05/30 03:44:09;;;;;;;26.88;17.67;;;6.20;99.90;;;7.36;97.17;101747.16;4966058;29;20277;-84
2021/05/30 03:46:37;;;;;;;30.58;20.20;;;6.30;99.90;;;7.35;97.33;101750.25;4966645;28;20138;-85
2021/05/30 03:49:07;;;;;;;33.83;20.00;;;6.20;99.90;;;7.34;97.15;101745.81;4965279;28;20043;-83
2021/05/30 03:51:34;;;;;;;30.08;19.02;;;6.20;99.90;;;7.36;97.38;101749.94;4964659;29;20107;-85
2021/05/30 03:54:00;;;;;;;29.95;19.67;;;6.20;99.90;;;7.34;97.09;101751.38;4957505;28;20041;-84
2021/05/30 03:56:27;;;;;;;28.35;18.65;;;6.20;99.90;;;7.29;97.19;101743.13;4956162;28;20078;-84
2021/05/30 03:58:53;;;;;;;27.58;18.65;;;6.20;99.90;;;7.29;97.16;101749.53;4957185;28;20372;-86
2021/05/30 04:01:19;;;;;;;30.92;20.73;;;6.10;99.90;;;7.32;97.32;101742.53;4956001;29;20031;-88
2021/05/30 04:03:46;;;;;;;30.02;19.15;;;6.20;99.90;;;7.35;97.02;101753.03;4957147;28;20114;-86
2021/05/30 04:06:12;;;;;;;31.65;19.30;;;6.20;99.90;;;7.34;96.78;101748.59;4956618;28;20103;-87
2021/05/30 04:08:38;;;;;;;31.38;19.63;;;6.20;99.90;;;7.32;96.89;101748.09;4955296;28;20031;-87
2021/05/30 04:11:05;;;;;;;30.95;18.45;;;6.10;99.90;;;7.29;97.14;101743.13;4973983;28;20062;-86
2021/05/30 04:13:32;;;;;;;29.70;19.08;;;6.20;99.90;;;7.31;97.01;101743.66;4975766;28;20046;-86
2021/05/30 04:15:58;;;;;;;31.20;19.42;;;6.10;99.90;;;7.32;97.11;101746.13;4976540;28;20035;-85
2021/05/30 04:18:25;;;;;;;26.65;18.15;;;6.20;99.90;;;7.35;97.05;101744.72;4975331;28;20031;-88
2021/05/30 04:20:51;;;;;;;32.83;20.30;;;6.20;99.90;;;7.44;97.06;101751.19;4976654;28;20027;-84
2021/05/30 04:23:17;;;;;;;28.77;18.95;;;6.30;99.90;;;7.49;97.23;101748.28;4979405;28;20069;-85
2021/05/30 04:25:44;;;;;;;32.45;20.92;;;6.30;99.90;;;7.57;96.87;101757.84;4980649;28;20034;-85
2021/05/30 04:28:10;;;;;;;34.92;20.85;;;6.40;99.90;;;7.67;97.46;101754.84;4978482;28;20043;-84
2021/05/30 04:30:38;;;;;;;32.47;19.45;;;6.40;99.90;;;7.78;97.22;101751.53;4978985;28;20038;-84
2021/05/30 04:33:05;;;;;;;35.55;21.73;;;6.60;99.90;;;8.04;97.09;101745.34;4978713;28;20037;-87
2021/05/30 04:35:32;;;;;;;41.95;23.80;;;6.80;99.90;;;8.30;97.20;101750.03;4977936;28;20035;-85
2021/05/30 04:37:58;;;;;;;32.70;21.63;;;7.00;99.90;;;8.58;96.57;101747.91;4960871;28;20031;-85
2021/05/30 04:40:25;;;;;;;30.90;19.95;;;7.20;99.90;;;8.80;96.58;101747.88;4957843;29;20396;-84
2021/05/30 04:42:52;;;;;;;29.63;18.52;;;7.40;99.90;;;9.00;96.17;101738.97;4960680;28;20078;-84
2021/05/30 04:45:19;;;;;;;30.50;19.75;;;7.60;99.90;;;9.23;96.02;101750.03;4957688;28;20071;-87
2021/05/30 04:47:46;;;;;;;30.08;20.98;;;7.80;99.90;;;9.46;95.79;101757.19;4957835;28;20050;-88
2021/05/30 04:50:15;;;;;;;33.90;20.77;;;8.00;99.90;;;9.69;95.53;101747.56;4958338;29;20399;-85
2021/05/30 04:52:42;;;;;;;28.45;19.95;;;8.20;99.90;;;9.92;95.05;101756.63;4958920;28;20035;-85
2021/05/30 04:55:13;;;;;;;28.63;19.48;;;8.40;99.90;;;10.19;94.76;101752.69;4958459;29;20137;-87
2021/05/30 04:57:42;;;;;;;28.80;17.55;;;8.60;99.90;;;10.42;94.00;101749.41;4959058;28;20038;-84
2021/05/30 05:00:11;;;;;;;25.42;17.05;;;8.90;99.90;;;10.72;93.65;101758.72;4959336;29;20119;-85
2021/05/30 05:02:38;;;;;;;23.95;18.17;;;9.10;99.90;;;10.97;93.13;101762.59;4959066;29;20130;-85
2021/05/30 05:05:07;;;;;;;26.10;18.45;;;9.30;99.90;;;11.19;92.61;101750.31;4959969;28;20027;-86
2021/05/30 05:07:34;;;;;;;24.90;17.70;;;9.50;99.90;;;11.46;91.52;101747.06;4958800;28;20023;-84
2021/05/30 05:10:04;;;;;;;24.58;17.83;;;9.80;99.90;;;11.71;90.39;101756.50;4967293;28;20022;-83
2021/05/30 05:12:30;;;;;;;28.48;18.67;;;10.00;99.90;;;11.94;89.34;101755.03;4978568;28;20023;-84
2021/05/30 05:15:09;;;;;;;30.30;20.02;;;10.30;99.90;;;12.18;87.13;101757.13;4996972;28;20023;-86
2021/05/30 05:17:36;;;;;;;24.95;17.83;;;10.50;99.90;;;12.42;85.39;101762.84;4988995;28;20047;-87
2021/05/30 05:20:03;;;;;;;24.80;17.40;;;10.70;99.90;;;12.64;82.37;101762.47;4978362;28;20061;-87
2021/05/30 05:22:29;;;;;;;26.63;17.30;;;11.00;99.90;;;12.91;82.01;101772.22;4976817;28;20049;-86
2021/05/30 05:24:55;;;;;;;23.35;16.13;;;11.20;99.90;;;13.09;79.67;101766.13;4983587;28;20467;-85
2021/05/30 05:27:20;;;;;;;21.80;14.85;;;11.40;99.90;;;13.27;77.63;101772.34;4977226;28;20031;-88
2021/05/30 05:29:47;;;;;;;23.73;15.05;;;11.60;99.90;;;13.42;76.13;101768.03;4978083;28;20082;-88
2021/05/30 05:32:13;;;;;;;23.75;15.18;;;11.70;99.90;;;13.48;74.69;101773.06;4980062;28;20030;-86
2021/05/30 05:34:39;;;;;;;24.08;14.40;;;11.80;99.90;;;13.63;74.54;101777.97;4979604;28;20419;-87
2021/05/30 05:37:07;;;;;;;19.90;14.52;;;12.00;99.90;;;13.86;73.86;101772.69;4967182;28;20770;-87
2021/05/30 05:39:34;;;;;;;23.58;14.50;;;12.20;99.90;;;14.10;72.92;101768.97;4961000;28;20054;-87
2021/05/30 05:41:59;;;;;;;23.67;14.70;;;12.40;99.90;;;14.10;72.72;101768.97;4960391;29;20422;-88
2021/05/30 05:44:25;;;;;;;19.65;14.38;;;12.50;99.90;;;14.32;72.23;101770.47;4960782;29;20028;-87
2021/05/30 05:46:52;;;;;;;21.65;14.00;;;12.60;99.90;;;14.35;71.71;101769.78;4960548;28;20034;-85
2021/05/30 05:49:18;;;;;;;18.77;13.55;;;12.70;99.90;;;14.56;70.25;101770.38;4961832;28;20074;-87
2021/05/30 05:51:44;;;;;;;18.25;12.80;;;12.80;99.90;;;14.85;70.47;101774.81;4961634;29;20073;-86
2021/05/30 05:54:14;;;;;;;18.63;12.95;;;13.10;99.90;;;14.96;69.23;101767.50;4959852;29;20039;-87
2021/05/30 05:56:40;;;;;;;16.75;12.73;;;13.20;99.90;;;15.20;68.71;101770.13;4957638;28;20039;-86
2021/05/30 05:59:10;;;;;;;15.05;10.88;;;13.40;99.90;;;15.30;67.53;101776.03;4958398;29;20032;-88
2021/05/30 06:01:35;;;;;;;16.55;11.75;;;13.60;99.90;;;15.58;67.31;101766.69;4960375;29;20075;-87
2021/05/30 06:04:01;;;;;;;17.17;11.60;;;13.80;99.90;;;15.87;65.93;101774.63;4959995;29;20080;-87
2021/05/30 06:06:27;;;;;;;15.05;11.43;;;14.10;99.90;;;15.93;65.52;101775.16;4958650;28;20130;-88
2021/05/30 06:08:54;;;;;;;14.13;10.68;;;14.30;99.90;;;16.18;64.00;101773.75;4959728;29;20031;-85
2021/05/30 06:11:22;;;;;;;15.25;11.40;;;14.40;99.90;;;16.39;63.48;101776.19;4958701;29;20102;-87
2021/05/30 06:13:48;;;;;;;13.43;9.93;;;14.60;99.90;;;16.61;63.27;101783.94;4960580;28;20140;-87
2021/05/30 06:16:15;;;;;;;16.35;11.25;;;14.80;99.90;;;16.85;61.11;101792.09;4975494;28;20027;-87
2021/05/30 06:18:46;;;;;;;17.23;12.45;;;14.90;99.90;;;16.92;60.54;101788.59;4961390;28;20399;-84
2021/05/30 06:21:14;;;;;;;15.98;12.13;;;15.00;99.90;;;17.03;60.39;101783.97;4957448;29;20086;-84
2021/05/30 06:23:40;;;;;;;15.73;11.35;;;15.20;99.90;;;16.94;59.91;101789.84;4958491;29;20032;-84
2021/05/30 06:26:10;;;;;;;15.57;11.40;;;15.20;99.90;;;17.21;60.31;101787.94;4964444;28;20030;-85
2021/05/30 06:28:37;;;;;;;15.80;11.27;;;15.40;99.90;;;17.51;58.91;101788.88;4962406;23;20079;-84
2021/05/30 06:31:03;;;;;;;13.75;10.85;;;15.60;99.90;;;17.47;60.22;101792.81;4923377;29;20421;-83
2021/05/30 06:33:29;;;;;;;14.70;10.90;;;15.70;99.90;;;17.78;58.08;101793.41;4920903;29;20035;-81
2021/05/30 06:35:55;;;;;;;16.77;10.50;;;15.90;99.90;;;17.98;56.35;101798.94;4925239;29;20035;-83
2021/05/30 06:38:20;;;;;;;12.95;9.98;;;16.10;99.90;;;18.25;57.08;101792.03;4951485;29;20036;-82
2021/05/30 06:40:46;;;;;;;16.63;10.18;;;16.30;99.90;;;18.47;56.82;101802.44;4920718;29;20466;-83
2021/05/30 06:43:12;;;;;;;15.00;10.70;;;16.50;99.90;;;18.61;55.01;101804.69;4922870;29;20032;-86
2021/05/30 06:45:39;;;;;;;14.70;10.55;;;16.70;99.90;;;18.70;55.37;101791.03;4956720;28;20043;-79
2021/05/30 06:48:10;;;;;;;13.13;9.52;;;16.80;99.90;;;18.73;53.86;101798.75;4930174;29;20032;-84
2021/05/30 06:50:36;;;;;;;14.80;10.23;;;16.70;99.90;;;18.68;54.11;101801.94;4919773;29;20151;-85
2021/05/30 06:53:02;;;;;;;14.48;10.18;;;16.90;99.90;;;18.63;54.75;101790.94;4919967;29;20027;-83
2021/05/30 06:55:28;;;;;;;13.02;9.43;;;17.00;99.90;;;18.98;54.23;101794.19;4950749;29;20028;-84
2021/05/30 06:57:53;;;;;;;11.77;8.57;;;17.20;99.90;;;19.44;52.94;101798.34;4919738;29;20481;-83
2021/05/30 07:00:21;;;;;;;12.93;9.50;;;17.40;99.90;;;19.62;51.13;101797.69;4949769;29;20131;-82
2021/05/30 07:02:49;;;;;;;12.90;8.73;;;17.50;99.90;;;19.73;50.70;101799.41;4919929;29;20028;-85
2021/05/30 07:05:17;;;;;;;13.00;9.43;;;17.60;99.90;;;19.65;49.42;101794.84;4918783;29;20397;-83
2021/05/30 07:07:43;;;;;;;11.93;8.77;;;17.80;99.90;;;19.77;50.25;101796.59;4919299;29;20111;-84
2021/05/30 07:10:12;;;;;;;13.63;7.93;;;17.80;99.90;;;20.41;48.89;101792.16;4950936;29;20032;-85
2021/05/30 07:12:37;;;;;;;12.25;8.82;;;18.10;99.90;;;20.43;49.08;101792.56;4920201;29;20484;-80
2021/05/30 07:15:04;;;;;;;10.95;8.05;;;18.40;99.90;;;20.83;47.17;101791.53;4951214;29;20045;-83
2021/05/30 07:17:30;;;;;;;13.30;8.75;;;18.60;99.90;;;20.49;47.42;101799.47;4919864;29;20036;-85
2021/05/30 07:19:57;;;;;;;8.60;6.50;;;18.70;98.10;;;20.92;46.65;101797.63;4920360;29;20135;-83
2021/05/30 07:22:24;;;;;;;13.60;8.38;;;18.90;98.00;;;21.39;45.61;101805.03;4919986;29;20393;-83
2021/05/30 07:24:50;;;;;;;10.32;8.02;;;19.10;95.80;;;21.05;46.21;101793.19;4921061;29;20028;-83
2021/05/30 07:27:16;;;;;;;10.73;7.63;;;19.20;94.90;;;21.27;45.62;101803.41;4915389;29;1065530;-83
2021/05/30 07:29:42;;;;;;;11.57;7.93;;;19.20;93.40;;;20.98;45.66;101798.84;4920508;29;20036;-85
2021/05/30 07:32:08;;;;;;;11.00;7.38;;;19.30;91.30;;;21.50;44.42;101791.66;4920181;29;20028;-86
2021/05/30 07:34:34;;;;;;;13.00;8.07;;;19.50;90.00;;;21.82;44.28;101794.50;4921816;29;20086;-84
2021/05/30 07:37:00;;;;;;;10.55;7.68;;;19.60;90.60;;;22.06;44.35;101790.81;4921554;29;20043;-83
2021/05/30 07:39:25;;;;;;;8.68;7.22;;;19.70;90.80;;;21.92;44.10;101802.25;4922449;29;20091;-85
2021/05/30 07:41:51;;;;;;;9.48;7.88;;;19.90;88.20;;;22.25;43.26;101803.81;4921848;29;20068;-85
2021/05/30 07:44:17;;;;;;;10.85;8.07;;;20.10;84.90;;;22.46;43.13;101796.00;4921370;29;20028;-83
2021/05/30 07:46:43;;;;;;;8.25;6.03;;;20.30;84.40;;;22.21;43.32;101806.66;4922392;29;20039;-83
2021/05/30 07:49:09;;;;;;;10.25;8.20;;;20.20;82.50;;;21.91;43.01;101807.13;4953522;29;20127;-83
2021/05/30 07:51:35;;;;;;;10.32;6.80;;;20.10;78.70;;;22.32;42.63;101798.91;4920904;29;20063;-82
2021/05/30 07:54:01;;;;;;;10.77;6.90;;;20.30;79.60;;;22.30;43.28;101803.38;4952841;29;20087;-83
2021/05/30 07:56:27;;;;;;;9.30;6.70;;;20.50;80.30;;;22.91;42.09;101805.59;4953806;28;20143;-82
2021/05/30 07:58:52;;;;;;;10.35;7.07;;;20.60;78.40;;;23.16;42.11;101796.91;4925950;29;20084;-83
2021/05/30 08:01:18;;;;;;;9.82;6.93;;;20.80;80.10;;;22.83;41.68;101797.53;4924311;29;20032;-84
2021/05/30 08:03:44;;;;;;;7.68;6.30;;;20.90;74.20;;;23.12;40.77;101804.66;4956713;29;20028;-85
2021/05/30 08:06:10;;;;;;;7.82;6.32;;;21.00;72.90;;;23.39;40.06;101799.19;4924832;29;20123;-85
2021/05/30 08:08:36;;;;;;;7.93;6.28;;;21.10;71.10;;;24.12;39.15;101788.38;4926323;29;20032;-83
2021/05/30 08:11:02;;;;;;;9.07;6.28;;;21.50;71.10;;;24.43;37.76;101798.66;4930932;29;20020;-85
2021/05/30 08:13:28;;;;;;;11.57;5.82;;;21.80;67.50;;;24.62;37.10;101794.34;4937595;29;20047;-83
2021/05/30 08:15:54;;;;;;;7.53;6.45;;;22.10;65.50;;;24.44;37.11;101785.16;4931076;29;20475;-85
2021/05/30 08:18:20;;;;;;;7.85;5.07;;;22.10;64.10;;;24.57;36.51;101786.22;4961543;28;20060;-81
2021/05/30 08:20:47;;;;;;;8.45;5.03;;;22.00;62.50;;;23.78;36.20;101794.00;4933658;29;20028;-82
2021/05/30 08:23:14;;;;;;;7.50;4.53;;;21.90;60.90;;;23.75;36.60;101786.28;4930544;29;20032;-85
2021/05/30 08:25:40;;;;;;;7.43;5.57;;;21.80;61.80;;;23.76;37.63;101787.13;4959063;29;20047;-82
2021/05/30 08:28:09;;;;;;;6.55;4.30;;;21.90;62.20;;;24.58;35.98;101791.53;4924381;29;20043;-83
2021/05/30 08:30:38;;;;;;;5.97;4.65;;;22.20;60.30;;;25.09;35.33;101781.06;4925499;29;20035;-81
2021/05/30 08:33:05;;;;;;;5.00;3.35;;;22.50;60.80;;;24.95;32.57;101789.84;4921602;29;20028;-82
2021/05/30 08:35:31;;;;;;;8.48;4.63;;;22.60;56.40;;;24.76;33.88;101785.56;4922800;29;20033;-83
2021/05/30 08:37:57;;;;;;;8.57;5.68;;;22.50;56.50;;;24.23;35.72;101794.81;4921211;29;20047;-81
2021/05/30 08:40:24;;;;;;;6.35;5.50;;;22.30;58.90;;;25.01;35.26;101783.22;4923136;29;20120;-82
2021/05/30 08:42:50;;;;;;;5.57;4.70;;;22.60;59.00;;;25.35;35.10;101777.41;4922135;29;20040;-81
2021/05/30 08:45:18;;;;;;;6.78;3.95;;;22.70;59.60;;;25.67;33.46;101777.69;4923706;29;20075;-82
2021/05/30 08:47:45;;;;;;;6.18;4.60;;;23.00;56.60;;;25.39;34.92;101783.06;4953388;29;20052;-83
2021/05/30 08:50:13;;;;;;;6.80;4.15;;;23.00;58.00;;;24.79;33.04;101781.84;4923096;29;20026;-82
2021/05/30 08:52:41;;;;;;;6.15;3.67;;;23.00;54.50;;;25.20;34.00;101780.91;4923010;29;20035;-80
2021/05/30 08:55:09;;;;;;;5.53;3.55;;;23.00;55.90;;;25.48;34.12;101772.69;4923391;29;20032;-82
2021/05/30 08:57:35;;;;;;;4.35;3.35;;;23.20;56.40;;;25.51;33.46;101771.84;4922845;29;20084;-82
2021/05/30 09:00:05;;;;;;;4.47;3.83;;;23.10;55.70;;;25.25;32.75;101778.38;4923898;29;20084;-85
2021/05/30 09:02:31;;;;;;;6.63;3.97;;;23.30;54.00;;;25.01;34.31;101780.34;4923128;29;20032;-83
2021/05/30 09:05:08;;;;;;;4.35;3.17;;;23.30;55.10;;;25.26;31.34;101774.28;4931634;29;20048;-81
2021/05/30 09:07:50;;;;;;;4.97;2.88;;;23.10;52.00;;;25.50;30.95;101773.09;4939029;29;20019;-82
2021/05/30 09:10:26;;;;;;;4.75;2.65;;;23.10;51.60;;;25.88;30.08;101772.84;4929817;29;20028;-84
2021/05/30 09:13:12;;;;;;;3.40;2.70;;;23.40;51.00;;;25.81;29.53;101761.53;4923035;29;20048;-84
2021/05/30 09:18:22;;;;;;;5.57;3.03;;;23.50;51.60;;;25.51;30.19;101762.44;4917433;29;20047;-83
2021/05/30 09:20:58;;;;;;;3.45;2.60;;;23.50;49.90;;;25.80;30.58;101760.72;4921257;29;20024;-84
2021/05/30 09:23:46;;;;;;;3.80;2.47;;;23.60;50.70;;;26.48;31.59;101757.38;4952508;28;20494;-82
2021/05/30 09:26:19;;;;;;;3.33;2.33;;;23.90;52.60;;;26.92;29.63;101765.44;4921653;29;20028;-84
2021/05/30 09:29:09;;;;;;;2.53;2.25;;;24.20;50.10;;;26.56;27.62;101755.97;4914511;29;20035;-85
2021/05/30 09:31:55;;;;;;;3.70;2.75;;;24.30;46.70;;;26.32;28.43;101765.88;4919326;29;20066;-82
2021/05/30 09:34:42;;;;;;;2.88;2.22;;;24.30;47.00;;;26.43;28.64;101755.00;4901702;29;20521;-81
2021/05/30 09:37:09;;;;;;;3.08;2.30;;;24.20;47.50;;;26.26;29.61;101744.75;4910165;29;20457;-82
2021/05/30 09:39:44;;;;;;;3.05;2.30;;;24.10;49.10;;;26.52;27.45;101752.38;4943560;29;20056;-83
2021/05/30 09:42:33;;;;;;;2.80;2.08;;;24.30;47.20;;;26.23;29.54;101740.72;4919373;29;20052;-81
2021/05/30 09:45:10;;;;;;;4.88;2.58;;;24.20;48.60;;;25.97;29.07;101751.00;4913362;29;20055;-84
2021/05/30 09:47:45;;;;;;;4.05;2.40;;;24.10;48.00;;;26.31;28.38;101750.75;4919163;29;20051;-83
2021/05/30 09:50:20;;;;;;;2.95;2.17;;;24.10;48.00;;;25.57;29.69;101744.34;4917994;29;20468;-83
2021/05/30 09:52:51;;;;;;;2.20;2.00;;;23.90;48.00;;;25.85;28.88;101745.09;4918170;29;20036;-82
2021/05/30 09:55:26;;;;;;;3.22;2.20;;;24.00;46.90;;;26.76;28.82;101744.47;4934234;29;20036;-85
2021/05/30 09:58:18;;;;;;;3.43;2.03;;;24.20;48.40;;;26.99;27.88;101736.59;4929715;29;20096;-82
2021/05/30 10:01:00;;;;;;;5.70;3.05;;;24.50;46.70;;;26.49;29.14;101747.53;4919499;29;20283;-81
2021/05/30 10:03:27;;;;;;;4.28;2.38;;;24.80;47.60;;;26.30;30.48;101743.41;4919542;29;20035;-82
2021/05/30 10:05:54;;;;;;;2.42;1.95;;;24.60;48.40;;;27.01;28.78;101741.88;4917920;29;20059;-84
2021/05/30 10:08:23;;;;;;;3.70;1.90;;;24.60;47.50;;;26.88;27.10;101733.16;4919177;29;20032;-82
2021/05/30 10:10:49;;;;;;;3.33;2.10;;;24.70;45.50;;;27.05;27.71;101739.72;4919042;29;20425;-81
2021/05/30 10:13:15;;;;;;;3.35;2.50;;;24.80;46.00;;;25.81;28.49;101736.59;4919205;29;20459;-84
2021/05/30 10:15:42;;;;;;;2.42;2.10;;;24.50;45.90;;;25.94;28.21;101733.88;4918713;29;20059;-83
2021/05/30 10:18:19;;;;;;;4.68;2.40;;;24.10;46.20;;;26.31;27.97;101742.16;4948735;29;20388;-82